AAY2207 KSFB-KATW
Flight info
| Callsign | AAY2207 |
|---|---|
| Flight time | N/A |
| Altitude | 34000 |
| Route | DCT WORMS DCT JEEMY DCT ACCHE DCT PAINN DCT SHRKS Q77 TEUFL/N0462F350 Q77 WIGVO DCT IRQ/N0466F340 J99 VXV DCT IIU J89 BAE DCT CORIR DCT |
| Aircraft | A320/M-SDE3FGHIRWY/LB1 |
Departure
| Time | N/A |
|---|---|
| Airport | Orlando Sanford International Airport (KSFB) |
Arrival
| Time | 2026-05-08 02:56 |
|---|---|
| Airport | Appleton International Airport (KATW) |
| Time | Latitude | Longitude | Altitude | Speed | Heading |
|---|---|---|---|---|---|
| 2026-05-08 02:30 | 42.31306 | -87.98519 | 33951 ft | 399 kts | 335° |
| 2026-05-08 02:30 | 42.36671 | -88.00493 | 33945 ft | 399 kts | 335° |
| 2026-05-08 02:31 | 42.42030 | -88.02458 | 33954 ft | 398 kts | 335° |
| 2026-05-08 02:31 | 42.47372 | -88.04423 | 33941 ft | 397 kts | 335° |
| 2026-05-08 02:32 | 42.52674 | -88.06384 | 33960 ft | 397 kts | 335° |
| 2026-05-08 02:32 | 42.58001 | -88.08359 | 33956 ft | 397 kts | 335° |
| 2026-05-08 02:33 | 42.63344 | -88.10342 | 33967 ft | 397 kts | 335° |
| 2026-05-08 02:33 | 42.68666 | -88.12320 | 33971 ft | 396 kts | 335° |
| 2026-05-08 02:34 | 42.73949 | -88.14289 | 33967 ft | 396 kts | 335° |
| 2026-05-08 02:34 | 42.79290 | -88.16277 | 33964 ft | 395 kts | 335° |
| 2026-05-08 02:35 | 42.84563 | -88.18238 | 33949 ft | 395 kts | 335° |
| 2026-05-08 02:35 | 42.89867 | -88.20220 | 33792 ft | 395 kts | 335° |
| 2026-05-08 02:36 | 42.92517 | -88.21212 | 33521 ft | 395 kts | 335° |
| 2026-05-08 02:36 | 42.95171 | -88.22210 | 32716 ft | 397 kts | 335° |
| 2026-05-08 02:36 | 42.97835 | -88.23213 | 31856 ft | 398 kts | 336° |
| 2026-05-08 02:36 | 43.00506 | -88.24218 | 31045 ft | 398 kts | 336° |
| 2026-05-08 02:37 | 43.03177 | -88.25224 | 30152 ft | 400 kts | 336° |
| 2026-05-08 02:37 | 43.05874 | -88.26242 | 29116 ft | 402 kts | 336° |
| 2026-05-08 02:37 | 43.08567 | -88.27255 | 28347 ft | 398 kts | 336° |
| 2026-05-08 02:37 | 43.11206 | -88.28240 | 27833 ft | 389 kts | 337° |
| 2026-05-08 02:38 | 43.13815 | -88.29164 | 27164 ft | 386 kts | 338° |
| 2026-05-08 02:38 | 43.16415 | -88.29993 | 26518 ft | 383 kts | 339° |
| 2026-05-08 02:38 | 43.19009 | -88.30766 | 25879 ft | 380 kts | 340° |
| 2026-05-08 02:38 | 43.21587 | -88.31513 | 25252 ft | 377 kts | 341° |
| 2026-05-08 02:39 | 43.24146 | -88.32258 | 24626 ft | 375 kts | 341° |
| 2026-05-08 02:39 | 43.26694 | -88.33018 | 24011 ft | 373 kts | 341° |
| 2026-05-08 02:39 | 43.29220 | -88.33787 | 23384 ft | 371 kts | 341° |
| 2026-05-08 02:39 | 43.31732 | -88.34559 | 22743 ft | 368 kts | 341° |
| 2026-05-08 02:40 | 43.34222 | -88.35331 | 22184 ft | 364 kts | 341° |
| 2026-05-08 02:40 | 43.36672 | -88.36092 | 21639 ft | 360 kts | 341° |
| 2026-05-08 02:40 | 43.39073 | -88.36840 | 21136 ft | 355 kts | 341° |
| 2026-05-08 02:40 | 43.41467 | -88.37585 | 20630 ft | 351 kts | 341° |
| 2026-05-08 02:41 | 43.43838 | -88.38321 | 20170 ft | 348 kts | 341° |
| 2026-05-08 02:41 | 43.46185 | -88.39050 | 19707 ft | 344 kts | 341° |
| 2026-05-08 02:41 | 43.48485 | -88.39763 | 19592 ft | 335 kts | 341° |
| 2026-05-08 02:41 | 43.50762 | -88.40471 | 19461 ft | 336 kts | 341° |
| 2026-05-08 02:42 | 43.53035 | -88.41177 | 19045 ft | 334 kts | 341° |
| 2026-05-08 02:42 | 43.55332 | -88.41892 | 18197 ft | 342 kts | 341° |
| 2026-05-08 02:42 | 43.57628 | -88.42605 | 17468 ft | 332 kts | 341° |
| 2026-05-08 02:42 | 43.59859 | -88.43293 | 17005 ft | 326 kts | 341° |
| 2026-05-08 02:43 | 43.61353 | -88.43755 | 16698 ft | 324 kts | 341° |
| 2026-05-08 02:43 | 43.63532 | -88.44431 | 16259 ft | 322 kts | 341° |
| 2026-05-08 02:43 | 43.65696 | -88.45106 | 15795 ft | 320 kts | 341° |
| 2026-05-08 02:43 | 43.67882 | -88.45791 | 15325 ft | 318 kts | 341° |
| 2026-05-08 02:44 | 43.70043 | -88.46470 | 14858 ft | 317 kts | 340° |
| 2026-05-08 02:44 | 43.72192 | -88.47144 | 14386 ft | 316 kts | 340° |
| 2026-05-08 02:44 | 43.74338 | -88.47818 | 13914 ft | 316 kts | 340° |
| 2026-05-08 02:44 | 43.76481 | -88.48492 | 13399 ft | 316 kts | 340° |
| 2026-05-08 02:45 | 43.78589 | -88.49157 | 12919 ft | 314 kts | 341° |
| 2026-05-08 02:45 | 43.80720 | -88.49826 | 12423 ft | 312 kts | 341° |
| 2026-05-08 02:45 | 43.82836 | -88.50488 | 11951 ft | 311 kts | 342° |
| 2026-05-08 02:45 | 43.84950 | -88.51151 | 11447 ft | 310 kts | 342° |
| 2026-05-08 02:46 | 43.87053 | -88.51810 | 10945 ft | 309 kts | 342° |
| 2026-05-08 02:46 | 43.89128 | -88.52462 | 10696 ft | 300 kts | 343° |
| 2026-05-08 02:46 | 43.91108 | -88.53078 | 10567 ft | 288 kts | 343° |
| 2026-05-08 02:46 | 43.93037 | -88.53677 | 10440 ft | 277 kts | 343° |
| 2026-05-08 02:47 | 43.94869 | -88.54251 | 10317 ft | 267 kts | 343° |
| 2026-05-08 02:47 | 43.96704 | -88.54513 | 10189 ft | 264 kts | 359° |
| 2026-05-08 02:47 | 43.98484 | -88.53949 | 10063 ft | 263 kts | 17° |
| 2026-05-08 02:47 | 44.00017 | -88.52615 | 9942 ft | 260 kts | 36° |
| 2026-05-08 02:48 | 44.01157 | -88.50668 | 9817 ft | 260 kts | 53° |
| 2026-05-08 02:48 | 44.02060 | -88.48532 | 9693 ft | 253 kts | 53° |
| 2026-05-08 02:48 | 44.02945 | -88.46458 | 9504 ft | 247 kts | 53° |
| 2026-05-08 02:48 | 44.03826 | -88.44408 | 9213 ft | 247 kts | 53° |
| 2026-05-08 02:49 | 44.04705 | -88.42363 | 8933 ft | 246 kts | 53° |
| 2026-05-08 02:49 | 44.05598 | -88.40288 | 8352 ft | 257 kts | 53° |
| 2026-05-08 02:49 | 44.06548 | -88.38088 | 7703 ft | 271 kts | 54° |
| 2026-05-08 02:49 | 44.07501 | -88.35857 | 7462 ft | 266 kts | 55° |
| 2026-05-08 02:50 | 44.08441 | -88.33657 | 7157 ft | 264 kts | 54° |
| 2026-05-08 02:50 | 44.09593 | -88.31732 | 6799 ft | 255 kts | 36° |
| 2026-05-08 02:50 | 44.11054 | -88.30435 | 6264 ft | 245 kts | 21° |
| 2026-05-08 02:50 | 44.12551 | -88.29415 | 5798 ft | 232 kts | 21° |
| 2026-05-08 02:51 | 44.13943 | -88.28456 | 5459 ft | 217 kts | 21° |
| 2026-05-08 02:51 | 44.15269 | -88.27629 | 5095 ft | 204 kts | 9° |
| 2026-05-08 02:51 | 44.16593 | -88.27740 | 4792 ft | 184 kts | 334° |
| 2026-05-08 02:51 | 44.17545 | -88.28801 | 4523 ft | 172 kts | 302° |
| 2026-05-08 02:52 | 44.18082 | -88.30243 | 4286 ft | 165 kts | 296° |
| 2026-05-08 02:52 | 44.18589 | -88.31670 | 4045 ft | 163 kts | 296° |
| 2026-05-08 02:52 | 44.19092 | -88.33082 | 3808 ft | 162 kts | 296° |
| 2026-05-08 02:52 | 44.19589 | -88.34479 | 3574 ft | 161 kts | 297° |
| 2026-05-08 02:53 | 44.20074 | -88.35847 | 3349 ft | 158 kts | 297° |
| 2026-05-08 02:53 | 44.20558 | -88.37216 | 3114 ft | 157 kts | 297° |
| 2026-05-08 02:53 | 44.21040 | -88.38577 | 2903 ft | 152 kts | 297° |
| 2026-05-08 02:53 | 44.21492 | -88.39855 | 2665 ft | 143 kts | 297° |
| 2026-05-08 02:54 | 44.21926 | -88.41077 | 2472 ft | 139 kts | 297° |
| 2026-05-08 02:54 | 44.22352 | -88.42284 | 2272 ft | 138 kts | 297° |
| 2026-05-08 02:54 | 44.22775 | -88.43487 | 2076 ft | 138 kts | 297° |
| 2026-05-08 02:54 | 44.23199 | -88.44689 | 1884 ft | 138 kts | 297° |
| 2026-05-08 02:55 | 44.23626 | -88.45897 | 1683 ft | 139 kts | 297° |
| 2026-05-08 02:55 | 44.24489 | -88.48345 | 1291 ft | 142 kts | 296° |
| 2026-05-08 02:55 | 44.24918 | -88.49564 | 1098 ft | 142 kts | 296° |
| 2026-05-08 02:56 | 44.25349 | -88.50799 | 923 ft | 142 kts | 296° |
| 2026-05-08 02:56 | 44.25741 | -88.51923 | 887 ft | 99 kts | 296° |
| 2026-05-08 02:56 | 44.25917 | -88.52401 | 892 ft | 15 kts | 298° |
| 2026-05-08 02:56 | 44.26004 | -88.52456 | 892 ft | 13 kts | 23° |
| 2026-05-08 02:57 | 44.26030 | -88.52396 | 893 ft | 6 kts | 92° |
| 2026-05-08 02:57 | 44.26020 | -88.52354 | 894 ft | 3 kts | 111° |
| 2026-05-08 02:57 | 44.26012 | -88.52328 | 894 ft | 3 kts | 114° |
| 2026-05-08 02:57 | 44.25993 | -88.52273 | 894 ft | 12 kts | 116° |
| 2026-05-08 02:58 | 44.25938 | -88.52122 | 891 ft | 20 kts | 118° |
| 2026-05-08 02:58 | 44.25874 | -88.51939 | 890 ft | 22 kts | 114° |
| 2026-05-08 02:58 | 44.25837 | -88.51781 | 888 ft | 15 kts | 85° |
| 2026-05-08 02:58 | 44.25864 | -88.51623 | 885 ft | 19 kts | 72° |
| 2026-05-08 02:59 | 44.25900 | -88.51449 | 881 ft | 17 kts | 74° |
| 2026-05-08 02:59 | 44.25923 | -88.51336 | 877 ft | 0 kts | 75° |
| 2026-05-08 02:59 | 44.25925 | -88.51327 | 877 ft | 1 kts | 74° |
| 2026-05-08 03:00 | 44.25929 | -88.51297 | 877 ft | 5 kts | 81° |
| 2026-05-08 03:00 | 44.25939 | -88.51234 | 876 ft | 8 kts | 66° |
| 2026-05-08 03:00 | 44.25975 | -88.51211 | 876 ft | 1 kts | 359° |
| 2026-05-08 03:00 | 44.25976 | -88.51211 | 876 ft | 0 kts | 358° |